Time;durP1;ratioP1;P1;durP2;ratioP2;P2;SDS_P1;SDS_P2;PMS_P1;PMS_P2;Temp;Humidity;BMP_temperature;BMP_pressure;BME280_temperature;BME280_humidity;BME280_pressure;Samples;Min_cycle;Max_cycle;Signal;HPM_P1;HPM_P2
2022/03/24 00:00:39;;;;;;;46.38;30.42;;;9.80;99.90;;;;;;5079030;28;20040;-61
2022/03/24 00:03:06;;;;;;;49.78;31.35;;;9.80;99.90;;;;;;5077741;28;20024;-62
2022/03/24 00:05:32;;;;;;;47.42;29.65;;;9.70;99.90;;;;;;5077684;28;20033;-62
2022/03/24 00:07:58;;;;;;;49.47;31.27;;;9.60;99.90;;;;;;5077504;28;20126;-61
2022/03/24 00:10:24;;;;;;;50.42;30.08;;;9.60;99.90;;;;;;5077576;28;20348;-61
2022/03/24 00:12:51;;;;;;;49.95;31.20;;;9.60;99.90;;;;;;5078207;28;20025;-62
2022/03/24 00:15:17;;;;;;;50.72;30.65;;;9.60;99.90;;;;;;5078250;28;20296;-61
2022/03/24 00:17:44;;;;;;;48.35;29.10;;;9.50;99.90;;;;;;5078131;28;20032;-62
2022/03/24 00:20:12;;;;;;;49.95;31.05;;;9.50;99.90;;;;;;5078147;28;20035;-61
2022/03/24 00:22:38;;;;;;;49.40;29.90;;;9.50;99.90;;;;;;5077384;28;20039;-62
2022/03/24 00:25:05;;;;;;;51.05;31.17;;;9.50;99.90;;;;;;5078626;28;20039;-62
2022/03/24 00:27:31;;;;;;;50.65;30.85;;;9.40;99.90;;;;;;5077985;28;20028;-62
2022/03/24 00:29:57;;;;;;;50.17;32.53;;;9.40;99.90;;;;;;5077682;28;20032;-63
2022/03/24 00:32:24;;;;;;;48.05;30.33;;;9.30;99.90;;;;;;5077825;28;20021;-63
2022/03/24 00:34:50;;;;;;;45.38;29.38;;;9.40;99.90;;;;;;5077970;28;20087;-63
2022/03/24 00:37:17;;;;;;;51.08;31.02;;;9.30;99.90;;;;;;5078087;28;20048;-62
2022/03/24 00:39:43;;;;;;;49.58;31.42;;;9.30;99.90;;;;;;5077672;28;20044;-62
2022/03/24 00:42:12;;;;;;;48.17;31.15;;;9.20;99.90;;;;;;5077810;28;20115;-62
2022/03/24 00:44:42;;;;;;;52.97;32.35;;;9.20;99.90;;;;;;5077008;28;20115;-62
2022/03/24 00:47:10;;;;;;;49.28;30.58;;;9.20;99.90;;;;;;5077716;28;20392;-63
2022/03/24 00:49:39;;;;;;;47.72;30.15;;;9.20;99.90;;;;;;5078195;28;20380;-63
2022/03/24 00:52:05;;;;;;;49.47;31.83;;;9.20;99.90;;;;;;5077821;28;20028;-63
2022/03/24 00:54:31;;;;;;;49.42;32.00;;;9.10;99.90;;;;;;5077508;28;20333;-63
2022/03/24 00:56:57;;;;;;;49.30;31.15;;;9.00;99.90;;;;;;5077660;28;20346;-63
2022/03/24 00:59:23;;;;;;;50.58;32.05;;;9.00;99.90;;;;;;5077447;28;20111;-63
2022/03/24 01:01:49;;;;;;;54.53;32.40;;;9.10;99.90;;;;;;5076648;28;20075;-62
2022/03/24 01:04:16;;;;;;;59.53;32.28;;;9.10;99.90;;;;;;5076530;28;20093;-63
2022/03/24 01:06:42;;;;;;;54.15;31.63;;;9.00;99.90;;;;;;5076499;28;20032;-62
2022/03/24 01:09:07;;;;;;;53.95;32.30;;;8.90;99.90;;;;;;5077179;28;20043;-63
2022/03/24 01:11:34;;;;;;;55.92;34.85;;;8.90;99.90;;;;;;5077361;28;20028;-63
2022/03/24 01:14:01;;;;;;;52.75;33.17;;;8.90;99.90;;;;;;5076895;28;20292;-63
2022/03/24 01:16:28;;;;;;;52.72;31.35;;;8.90;99.90;;;;;;5076308;28;20027;-62
2022/03/24 01:18:54;;;;;;;53.05;32.42;;;8.90;99.90;;;;;;5076294;28;20090;-62
2022/03/24 01:21:19;;;;;;;52.03;32.63;;;9.00;99.90;;;;;;5077059;28;20033;-63
2022/03/24 01:23:46;;;;;;;53.20;32.60;;;8.90;99.90;;;;;;5076917;28;20093;-63
2022/03/24 01:26:13;;;;;;;56.58;32.50;;;8.90;99.90;;;;;;5077567;28;20037;-62
2022/03/24 01:28:41;;;;;;;55.35;32.13;;;8.80;99.90;;;;;;5076247;28;20032;-62
2022/03/24 01:31:11;;;;;;;51.33;32.10;;;8.80;99.90;;;;;;5077008;28;20319;-62
2022/03/24 01:33:39;;;;;;;53.10;32.83;;;8.80;99.90;;;;;;5076843;28;20352;-63
2022/03/24 01:36:06;;;;;;;52.17;32.97;;;8.80;99.90;;;;;;5076843;28;20035;-62
2022/03/24 01:38:32;;;;;;;55.97;33.55;;;8.70;99.90;;;;;;5075936;28;20033;-63
2022/03/24 01:40:58;;;;;;;49.97;32.72;;;8.70;99.90;;;;;;5076862;28;20124;-64
2022/03/24 01:43:25;;;;;;;53.13;32.65;;;8.60;99.90;;;;;;5059226;28;20402;-62
2022/03/24 01:45:52;;;;;;;54.35;32.58;;;8.70;99.90;;;;;;5076685;28;20047;-62
2022/03/24 01:48:18;;;;;;;54.42;32.95;;;8.50;99.90;;;;;;5075899;28;20028;-62
2022/03/24 01:50:44;;;;;;;51.22;31.75;;;8.50;99.90;;;;;;5059253;28;20381;-62
2022/03/24 01:53:12;;;;;;;54.13;33.58;;;8.50;99.90;;;;;;5075738;28;20028;-62
2022/03/24 01:55:39;;;;;;;52.90;33.17;;;8.50;99.90;;;;;;5075871;28;20324;-62
2022/03/24 01:58:05;;;;;;;51.92;32.60;;;8.50;99.90;;;;;;5075643;28;20103;-62
2022/03/24 02:00:32;;;;;;;51.20;32.38;;;8.50;99.90;;;;;;5075693;28;20028;-62
2022/03/24 02:03:01;;;;;;;55.88;34.65;;;8.50;99.90;;;;;;5076428;28;20036;-63
2022/03/24 02:05:31;;;;;;;52.10;33.30;;;8.40;99.90;;;;;;5058947;28;20443;-63
2022/03/24 02:08:03;;;;;;;56.17;33.88;;;8.40;99.90;;;;;;5075595;28;20119;-63
2022/03/24 02:10:31;;;;;;;58.78;35.08;;;8.50;99.90;;;;;;5075477;28;20025;-63
2022/03/24 02:12:58;;;;;;;54.65;32.17;;;8.60;99.90;;;;;;5076294;28;20052;-62
2022/03/24 02:15:27;;;;;;;57.38;34.78;;;8.40;99.90;;;;;;5076590;28;20222;-62
2022/03/24 02:17:53;;;;;;;59.70;34.30;;;8.30;99.90;;;;;;5079447;28;20099;-63
2022/03/24 02:20:21;;;;;;;56.47;33.95;;;8.30;99.90;;;;;;5063029;28;20032;-62
2022/03/24 02:22:48;;;;;;;54.60;33.90;;;8.40;99.90;;;;;;5080258;28;20177;-62
2022/03/24 02:25:14;;;;;;;58.53;34.35;;;8.30;99.90;;;;;;5063023;28;20043;-62
2022/03/24 02:27:41;;;;;;;57.50;33.70;;;8.30;99.90;;;;;;5079766;28;20285;-62
2022/03/24 02:30:08;;;;;;;56.47;33.10;;;8.40;99.90;;;;;;5080103;28;20047;-62
2022/03/24 02:32:34;;;;;;;56.15;34.55;;;8.30;99.90;;;;;;5079361;28;20420;-62
2022/03/24 02:35:00;;;;;;;55.53;33.25;;;8.30;99.90;;;;;;5079397;28;20120;-62
2022/03/24 02:37:28;;;;;;;59.25;33.05;;;8.30;99.90;;;;;;5063228;28;20127;-63
2022/03/24 02:39:57;;;;;;;55.53;32.88;;;8.30;99.90;;;;;;5079434;28;20052;-62
2022/03/24 02:42:26;;;;;;;56.55;33.03;;;8.30;99.90;;;;;;5062596;28;20105;-62
2022/03/24 02:44:54;;;;;;;52.28;31.52;;;8.30;99.90;;;;;;5080243;28;20253;-62
2022/03/24 02:47:21;;;;;;;52.00;32.47;;;8.40;99.90;;;;;;5079493;28;20020;-63
2022/03/24 02:49:50;;;;;;;53.97;32.90;;;8.50;99.90;;;;;;5079218;28;20032;-63
2022/03/24 02:52:16;;;;;;;52.40;31.13;;;8.40;99.90;;;;;;5079721;28;20020;-62
2022/03/24 02:54:42;;;;;;;54.83;34.25;;;8.40;99.90;;;;;;5079922;28;20024;-63
2022/03/24 02:57:09;;;;;;;51.10;32.92;;;8.30;99.90;;;;;;5079761;28;20028;-62
2022/03/24 02:59:35;;;;;;;54.17;32.40;;;8.20;99.90;;;;;;5080067;28;20276;-61
2022/03/24 03:02:06;;;;;;;54.00;32.92;;;8.20;99.90;;;;;;5079671;28;20137;-61
2022/03/24 03:04:34;;;;;;;54.30;33.40;;;8.20;99.90;;;;;;5079682;28;20121;-62
2022/03/24 03:07:02;;;;;;;53.05;32.72;;;8.20;99.90;;;;;;5079580;28;20039;-62
2022/03/24 03:09:30;;;;;;;51.95;32.50;;;8.10;99.90;;;;;;5079489;28;20079;-62
2022/03/24 03:11:57;;;;;;;53.92;32.95;;;8.00;99.90;;;;;;5078654;28;20423;-62
2022/03/24 03:14:23;;;;;;;57.35;33.60;;;8.00;99.90;;;;;;5079399;28;20032;-61
2022/03/24 03:16:49;;;;;;;54.70;32.63;;;8.10;99.90;;;;;;5078486;28;20028;-62
2022/03/24 03:19:19;;;;;;;55.70;32.30;;;8.00;99.90;;;;;;5078581;28;20094;-62
2022/03/24 03:21:48;;;;;;;56.13;32.53;;;8.00;99.90;;;;;;5079205;28;20391;-61
2022/03/24 03:24:14;;;;;;;54.30;31.65;;;7.90;99.90;;;;;;5079148;28;20028;-62
2022/03/24 03:26:40;;;;;;;57.47;32.10;;;7.80;99.90;;;;;;5078551;28;20039;-62
2022/03/24 03:29:06;;;;;;;52.65;32.15;;;7.90;99.90;;;;;;5078889;28;20111;-61
2022/03/24 03:31:34;;;;;;;52.40;33.13;;;7.90;99.90;;;;;;5061841;28;20086;-61
2022/03/24 03:34:01;;;;;;;51.58;31.85;;;7.90;99.90;;;;;;5078999;28;20124;-61
2022/03/24 03:36:27;;;;;;;54.22;32.20;;;7.80;99.90;;;;;;5061621;28;20116;-64
2022/03/24 03:38:53;;;;;;;53.80;32.58;;;7.90;99.90;;;;;;5061478;28;20076;-63
2022/03/24 03:41:22;;;;;;;54.58;32.40;;;7.80;99.90;;;;;;5079271;28;20304;-62
2022/03/24 03:43:49;;;;;;;50.20;30.75;;;7.70;99.90;;;;;;5078957;28;20075;-62
2022/03/24 03:46:15;;;;;;;51.90;32.22;;;7.60;99.90;;;;;;5061709;28;20040;-63
2022/03/24 03:48:42;;;;;;;56.88;33.63;;;7.60;99.90;;;;;;5078222;28;20044;-63
2022/03/24 03:51:08;;;;;;;53.33;31.50;;;7.60;99.90;;;;;;5079087;28;20404;-62
2022/03/24 03:53:35;;;;;;;54.58;32.83;;;7.50;99.90;;;;;;5078284;28;20408;-62
2022/03/24 03:56:03;;;;;;;55.08;31.52;;;7.60;99.90;;;;;;5078955;28;20331;-62
2022/03/24 03:58:29;;;;;;;51.55;31.90;;;7.70;99.90;;;;;;5078698;28;20028;-62
2022/03/24 04:00:58;;;;;;;53.53;31.67;;;7.60;99.90;;;;;;5077740;28;20029;-61
2022/03/24 04:03:26;;;;;;;53.97;32.47;;;7.60;99.90;;;;;;5078868;28;20086;-62
2022/03/24 04:05:53;;;;;;;49.95;30.42;;;7.40;99.90;;;;;;5078708;28;20032;-62
2022/03/24 04:08:20;;;;;;;54.70;32.63;;;7.50;99.90;;;;;;5078634;28;20028;-61
2022/03/24 04:10:46;;;;;;;51.47;31.65;;;7.40;99.90;;;;;;5078668;28;20039;-61
2022/03/24 04:13:12;;;;;;;56.88;33.58;;;7.40;99.90;;;;;;5077951;28;20043;-62
2022/03/24 04:15:38;;;;;;;55.10;32.47;;;7.40;99.90;;;;;;5077584;28;20025;-62
2022/03/24 04:18:06;;;;;;;53.30;32.67;;;7.30;99.90;;;;;;5078600;28;20048;-62
2022/03/24 04:20:33;;;;;;;60.08;32.50;;;7.20;99.90;;;;;;5078345;28;20102;-62
2022/03/24 04:23:01;;;;;;;56.30;33.53;;;7.10;99.90;;;;;;5078196;28;20040;-63
2022/03/24 04:25:28;;;;;;;58.20;31.45;;;7.20;99.90;;;;;;5078206;28;20395;-61
2022/03/24 04:27:54;;;;;;;51.25;31.77;;;7.10;99.90;;;;;;5078181;28;20039;-61
2022/03/24 04:30:21;;;;;;;54.15;32.05;;;7.10;99.90;;;;;;5077318;28;20281;-61
2022/03/24 04:32:48;;;;;;;49.70;31.42;;;7.00;99.90;;;;;;5078182;28;20032;-61
2022/03/24 04:35:15;;;;;;;53.70;31.77;;;6.90;99.90;;;;;;5060676;28;20024;-62
2022/03/24 04:37:42;;;;;;;55.00;32.13;;;6.90;99.90;;;;;;5077566;28;20066;-62
2022/03/24 04:40:11;;;;;;;56.63;32.15;;;6.90;99.90;;;;;;5077635;28;20051;-63
2022/03/24 04:42:38;;;;;;;54.42;33.40;;;6.90;99.90;;;;;;5077114;28;20123;-62
2022/03/24 04:45:06;;;;;;;57.33;33.03;;;6.90;99.90;;;;;;5077784;28;20126;-62
2022/03/24 04:47:34;;;;;;;56.10;32.05;;;7.00;99.90;;;;;;5077709;28;20044;-62
2022/03/24 04:50:00;;;;;;;56.08;33.50;;;6.90;99.90;;;;;;5077943;28;20028;-63
2022/03/24 04:52:26;;;;;;;50.65;32.08;;;6.90;99.90;;;;;;5076658;28;20047;-62
2022/03/24 04:54:52;;;;;;;55.03;32.25;;;6.90;99.90;;;;;;5076977;28;20024;-62
2022/03/24 04:57:18;;;;;;;57.47;33.03;;;6.90;99.90;;;;;;5077526;28;20182;-62
2022/03/24 04:59:44;;;;;;;57.63;32.75;;;6.90;99.90;;;;;;5077462;28;20024;-62
2022/03/24 05:02:15;;;;;;;57.47;33.08;;;6.80;99.90;;;;;;5077372;28;20115;-62
2022/03/24 05:04:42;;;;;;;52.63;32.38;;;6.80;99.90;;;;;;5078058;28;20041;-61
2022/03/24 05:07:09;;;;;;;54.67;32.00;;;6.70;99.90;;;;;;5076653;28;20040;-62
2022/03/24 05:09:35;;;;;;;51.92;30.67;;;6.70;99.90;;;;;;5077304;28;20043;-62
2022/03/24 05:12:01;;;;;;;55.97;32.35;;;6.70;99.90;;;;;;5076524;28;20033;-62
2022/03/24 05:14:27;;;;;;;59.05;33.50;;;6.70;99.90;;;;;;5077208;28;20036;-62
2022/03/24 05:16:53;;;;;;;56.75;33.17;;;6.70;99.90;;;;;;5077292;28;20036;-63
2022/03/24 05:19:19;;;;;;;53.88;30.65;;;6.70;99.90;;;;;;5077165;28;20450;-62
2022/03/24 05:21:45;;;;;;;58.40;32.55;;;6.70;99.90;;;;;;5076348;28;20036;-61
2022/03/24 05:24:12;;;;;;;55.42;32.35;;;6.60;99.90;;;;;;5077045;28;20388;-62
2022/03/24 05:26:38;;;;;;;55.15;31.80;;;6.60;99.90;;;;;;5077090;28;20400;-62
2022/03/24 05:29:04;;;;;;;52.88;30.92;;;6.60;99.90;;;;;;5076594;28;20032;-61
2022/03/24 05:31:30;;;;;;;63.88;36.47;;;6.50;99.90;;;;;;5076623;28;20040;-61
2022/03/24 05:33:56;;;;;;;56.20;32.63;;;6.50;99.90;;;;;;5077035;28;20325;-61
2022/03/24 05:36:22;;;;;;;53.05;32.28;;;6.50;99.90;;;;;;5077572;28;20028;-60
2022/03/24 05:38:47;;;;;;;58.03;34.08;;;6.60;99.90;;;;;;5076038;28;20044;-60
2022/03/24 05:41:13;;;;;;;55.88;32.70;;;6.60;99.90;;;;;;5077380;28;20032;-61
2022/03/24 05:44:02;;;;;;;54.35;33.22;;;6.50;99.90;;;;;;5059342;28;20036;-61
2022/03/24 05:46:26;;;;;;;54.90;31.92;;;6.50;99.90;;;;;;5076649;28;20050;-61
2022/03/24 05:48:51;;;;;;;57.15;32.63;;;6.50;99.90;;;;;;5076101;28;20025;-61
2022/03/24 05:51:37;;;;;;;58.05;33.67;;;6.60;99.90;;;;;;5076136;28;20055;-62
2022/03/24 05:54:03;;;;;;;53.80;32.40;;;6.60;99.90;;;;;;5059257;28;20111;-61
2022/03/24 05:56:30;;;;;;;55.78;32.47;;;6.50;99.90;;;;;;5076067;28;20028;-61
2022/03/24 05:58:56;;;;;;;57.92;33.60;;;6.50;99.90;;;;;;5075980;28;20074;-61
2022/03/24 06:01:24;;;;;;;56.67;33.40;;;6.50;99.90;;;;;;5059277;28;20032;-61
2022/03/24 06:03:51;;;;;;;54.65;32.53;;;6.60;99.90;;;;;;5075841;28;20028;-61
2022/03/24 06:06:22;;;;;;;56.20;33.40;;;6.60;99.90;;;;;;5058937;28;20066;-61
2022/03/24 06:08:52;;;;;;;40.97;24.73;;;6.60;99.90;;;;;;5076032;28;20370;-61
2022/03/24 06:11:19;;;;;;;53.35;31.85;;;6.60;99.90;;;;;;5076512;28;20407;-61
2022/03/24 06:13:46;;;;;;;55.63;32.47;;;6.60;99.90;;;;;;5076500;28;20085;-61
2022/03/24 06:16:13;;;;;;;58.35;33.72;;;6.60;99.90;;;;;;5075893;28;20020;-61
2022/03/24 06:18:40;;;;;;;59.75;34.28;;;6.70;99.90;;;;;;5075717;28;20033;-61
2022/03/24 06:21:07;;;;;;;56.35;34.10;;;6.80;99.90;;;;;;5076377;28;20028;-60
2022/03/24 06:23:33;;;;;;;64.10;34.35;;;6.80;99.90;;;;;;5076474;28;20411;-60
2022/03/24 06:25:59;;;;;;;61.95;34.63;;;6.90;99.90;;;;;;5059001;28;20025;-60
2022/03/24 06:28:25;;;;;;;61.03;35.20;;;7.00;99.90;;;;;;5058885;28;20032;-60
2022/03/24 06:30:51;;;;;;;60.75;34.15;;;7.00;99.90;;;;;;5076353;28;20394;-60
2022/03/24 06:33:18;;;;;;;60.90;33.75;;;7.10;99.90;;;;;;5075620;28;20060;-61
2022/03/24 06:35:45;;;;;;;63.92;36.45;;;7.20;99.90;;;;;;5058997;28;20035;-60
2022/03/24 06:38:12;;;;;;;61.33;34.35;;;7.40;99.90;;;;;;5076206;28;20024;-61
2022/03/24 06:40:39;;;;;;;57.70;32.88;;;7.40;99.90;;;;;;5076819;28;20041;-60
2022/03/24 06:43:07;;;;;;;60.25;34.97;;;7.30;99.90;;;;;;5075627;28;20094;-60
2022/03/24 06:45:34;;;;;;;57.08;34.60;;;7.40;99.90;;;;;;5075461;28;20025;-60
2022/03/24 06:48:00;;;;;;;62.53;34.70;;;7.40;99.90;;;;;;5075601;28;20086;-62
2022/03/24 06:50:26;;;;;;;58.90;32.95;;;7.60;99.90;;;;;;5075413;28;20135;-62
2022/03/24 06:52:52;;;;;;;60.58;33.22;;;7.70;99.90;;;;;;5076157;28;20458;-62
2022/03/24 06:55:19;;;;;;;59.83;33.80;;;7.70;99.90;;;;;;5075323;28;20025;-61
2022/03/24 06:57:45;;;;;;;54.92;32.55;;;7.80;99.90;;;;;;5076056;28;20029;-61
2022/03/24 07:00:14;;;;;;;62.75;34.72;;;7.90;99.90;;;;;;5076147;28;20036;-61
2022/03/24 07:02:40;;;;;;;59.90;33.28;;;8.00;99.90;;;;;;5077360;28;20059;-61
2022/03/24 07:05:11;;;;;;;63.42;35.65;;;8.10;99.90;;;;;;5079692;28;20312;-61
2022/03/24 07:07:37;;;;;;;57.72;35.00;;;8.20;99.90;;;;;;5079670;28;20082;-60
2022/03/24 07:10:04;;;;;;;61.00;33.35;;;8.40;99.90;;;;;;5079546;28;20035;-61
2022/03/24 07:12:30;;;;;;;55.75;34.08;;;8.50;99.90;;;;;;5079777;28;20396;-61
2022/03/24 07:14:57;;;;;;;58.63;35.38;;;8.50;99.90;;;;;;5078804;28;20041;-63
2022/03/24 07:17:23;;;;;;;62.05;34.67;;;8.70;99.90;;;;;;5061929;28;20411;-60
2022/03/24 07:19:48;;;;;;;67.35;35.13;;;9.10;99.90;;;;;;5078858;28;20025;-60
2022/03/24 07:22:15;;;;;;;57.53;33.50;;;9.20;99.90;;;;;;5062015;28;20032;-61
2022/03/24 07:24:42;;;;;;;54.28;31.50;;;9.30;99.90;;;;;;5078620;28;20041;-61
2022/03/24 07:27:07;;;;;;;62.72;35.47;;;9.60;99.90;;;;;;5079183;28;20043;-61
2022/03/24 07:29:33;;;;;;;60.53;34.55;;;9.60;99.90;;;;;;5061949;28;20112;-61
2022/03/24 07:32:00;;;;;;;57.53;35.13;;;9.70;99.90;;;;;;5078568;28;20036;-61
2022/03/24 07:34:27;;;;;;;58.47;34.88;;;9.80;99.90;;;;;;5078317;28;20345;-61
2022/03/24 07:36:53;;;;;;;57.22;34.08;;;9.90;99.90;;;;;;5061644;28;20112;-61
2022/03/24 07:39:19;;;;;;;57.13;33.85;;;10.10;99.90;;;;;;5078809;28;20144;-61
2022/03/24 07:41:45;;;;;;;64.25;36.17;;;10.40;99.90;;;;;;5078867;28;20116;-60
2022/03/24 07:44:11;;;;;;;64.40;37.17;;;10.40;99.90;;;;;;5078866;28;20451;-60
2022/03/24 07:46:37;;;;;;;61.40;35.97;;;10.60;99.90;;;;;;5078783;28;20040;-60
2022/03/24 07:49:03;;;;;;;63.75;35.28;;;10.60;99.90;;;;;;5078661;28;20299;-60
2022/03/24 07:51:32;;;;;;;54.88;34.28;;;10.80;99.90;;;;;;5078318;28;20099;-61
2022/03/24 07:54:02;;;;;;;61.13;34.53;;;11.00;99.90;;;;;;5078681;28;20351;-61
2022/03/24 07:56:30;;;;;;;56.10;33.60;;;11.20;99.90;;;;;;5077937;28;20037;-61
2022/03/24 07:58:57;;;;;;;59.35;33.95;;;11.30;99.90;;;;;;5078672;28;20430;-60
2022/03/24 08:01:36;;;;;;;58.55;34.65;;;11.40;99.90;;;;;;5078649;28;20457;-61
2022/03/24 08:04:06;;;;;;;57.13;34.22;;;11.60;99.90;;;;;;5078584;28;20056;-60
2022/03/24 08:06:33;;;;;;;59.53;36.13;;;11.80;99.90;;;;;;5077763;28;20037;-60
2022/03/24 08:08:59;;;;;;;60.03;36.00;;;11.90;99.90;;;;;;5078451;28;20063;-60
2022/03/24 08:11:26;;;;;;;60.22;35.72;;;12.00;99.90;;;;;;5078315;28;20093;-60
2022/03/24 08:13:54;;;;;;;66.53;37.40;;;12.20;99.90;;;;;;5078019;28;20090;-60
2022/03/24 08:16:24;;;;;;;62.05;34.25;;;12.40;99.90;;;;;;5078215;28;20399;-61
2022/03/24 08:18:51;;;;;;;68.20;36.15;;;12.60;99.90;;;;;;5078314;28;20043;-61
2022/03/24 08:21:16;;;;;;;61.33;36.38;;;12.70;99.90;;;;;;5078284;28;20028;-60
2022/03/24 08:23:42;;;;;;;61.53;36.45;;;12.90;99.90;;;;;;5078149;28;20408;-60
2022/03/24 08:26:09;;;;;;;61.70;36.08;;;13.10;99.90;;;;;;5077391;28;20042;-60
2022/03/24 08:28:35;;;;;;;67.55;39.28;;;13.30;99.90;;;;;;5078057;28;20036;-61
2022/03/24 08:31:01;;;;;;;58.78;36.08;;;13.40;99.90;;;;;;5077326;28;20025;-60
2022/03/24 08:33:28;;;;;;;63.35;38.30;;;13.50;99.90;;;;;;5078074;28;20388;-61
2022/03/24 08:35:55;;;;;;;69.28;40.03;;;13.60;99.90;;;;;;5078567;28;20079;-60
2022/03/24 08:38:21;;;;;;;67.53;39.47;;;13.60;99.90;;;;;;5077738;28;20112;-61
2022/03/24 08:40:47;;;;;;;65.85;39.42;;;13.80;99.90;;;;;;5078542;28;20115;-61
2022/03/24 08:43:13;;;;;;;66.85;39.17;;;13.80;99.90;;;;;;5078060;28;20353;-60
2022/03/24 08:45:39;;;;;;;67.50;40.53;;;13.90;99.90;;;;;;5076980;28;20036;-61
2022/03/24 08:48:06;;;;;;;64.55;39.70;;;13.90;99.90;;;;;;5077734;28;20040;-61
2022/03/24 08:50:35;;;;;;;68.07;39.30;;;13.90;99.90;;;;;;5077654;28;20035;-60
2022/03/24 08:53:04;;;;;;;66.60;39.83;;;14.00;99.90;;;;;;5077592;28;20024;-60
2022/03/24 08:55:30;;;;;;;67.20;40.50;;;13.90;99.90;;;;;;5077453;28;20024;-60
2022/03/24 08:57:56;;;;;;;68.82;38.58;;;13.90;99.90;;;;;;5077108;28;20030;-61
2022/03/24 09:00:23;;;;;;;65.55;38.38;;;14.10;99.90;;;;;;5077588;28;20036;-58
2022/03/24 09:02:51;;;;;;;69.57;38.05;;;14.30;99.90;;;;;;5077314;28;20032;-59
2022/03/24 09:05:18;;;;;;;67.90;38.22;;;14.40;99.90;;;;;;5077398;28;20366;-60
2022/03/24 09:07:44;;;;;;;62.58;38.25;;;14.40;99.90;;;;;;5077688;28;20050;-59
2022/03/24 09:10:12;;;;;;;67.72;39.22;;;14.50;99.90;;;;;;5059058;28;20300;-60
2022/03/24 09:12:44;;;;;;;67.95;38.47;;;14.70;99.90;;;;;;5076380;28;20060;-60
2022/03/24 09:15:11;;;;;;;70.80;38.22;;;14.90;99.90;;;;;;5060122;28;20109;-60
2022/03/24 09:17:39;;;;;;;66.57;38.83;;;15.20;99.90;;;;;;5076995;28;20101;-60
2022/03/24 09:20:11;;;;;;;68.95;38.15;;;15.40;99.90;;;;;;5077446;28;20368;-61
2022/03/24 09:22:39;;;;;;;60.42;37.78;;;15.50;99.90;;;;;;5077192;28;20040;-60
2022/03/24 09:25:06;;;;;;;63.38;36.47;;;15.70;99.90;;;;;;5075516;28;20035;-60
2022/03/24 09:27:32;;;;;;;60.40;36.22;;;15.80;99.90;;;;;;5076888;28;20024;-60
2022/03/24 09:29:58;;;;;;;58.53;35.88;;;15.70;99.90;;;;;;5077023;28;20028;-60
2022/03/24 09:32:24;;;;;;;60.33;34.83;;;15.70;99.90;;;;;;5076188;28;20029;-60
2022/03/24 09:34:50;;;;;;;58.95;34.58;;;15.80;99.90;;;;;;5076377;28;20123;-61
2022/03/24 09:37:18;;;;;;;61.92;36.17;;;16.00;99.90;;;;;;5059556;28;20115;-61
2022/03/24 09:39:45;;;;;;;65.60;35.95;;;16.10;99.90;;;;;;5075899;28;20119;-61
2022/03/24 09:42:12;;;;;;;67.15;35.63;;;16.40;99.90;;;;;;5043085;28;20119;-60
2022/03/24 09:44:40;;;;;;;63.60;35.53;;;16.50;99.90;;;;;;5075959;28;20093;-60
2022/03/24 09:47:08;;;;;;;62.45;34.22;;;16.50;99.90;;;;;;5077355;28;20028;-60
2022/03/24 09:49:35;;;;;;;54.25;33.28;;;16.60;99.90;;;;;;5076768;28;20029;-60
2022/03/24 09:52:01;;;;;;;54.92;34.30;;;16.60;99.90;;;;;;5076018;28;20050;-60
2022/03/24 09:54:26;;;;;;;58.80;34.78;;;16.80;99.90;;;;;;5076763;28;20111;-60
2022/03/24 09:56:52;;;;;;;60.75;32.97;;;16.80;99.90;;;;;;5075928;28;20103;-61
2022/03/24 09:59:20;;;;;;;60.40;32.85;;;17.00;99.90;;;;;;5076694;28;20028;-61
2022/03/24 10:01:45;;;;;;;50.88;31.02;;;16.80;99.60;;;;;;5075838;28;20040;-61
2022/03/24 10:04:14;;;;;;;50.30;30.95;;;16.90;99.00;;;;;;5076656;28;20353;-61
2022/03/24 10:06:59;;;;;;;56.42;32.72;;;17.00;98.50;;;;;;5075982;28;20040;-61
2022/03/24 10:09:43;;;;;;;55.30;32.38;;;17.10;97.30;;;;;;5076009;28;20333;-61
2022/03/24 10:12:20;;;;;;;50.10;29.00;;;17.30;98.10;;;;;;5076745;28;20435;-62
2022/03/24 10:14:56;;;;;;;49.85;31.70;;;17.50;99.30;;;;;;5076682;28;20028;-61
2022/03/24 10:17:22;;;;;;;51.45;30.98;;;17.80;97.50;;;;;;5075809;28;20400;-61
2022/03/24 10:19:57;;;;;;;49.88;31.10;;;18.10;95.50;;;;;;5075634;28;20075;-61
2022/03/24 10:22:24;;;;;;;49.67;31.33;;;18.20;94.70;;;;;;5076376;28;20109;-61
2022/03/24 10:24:50;;;;;;;56.97;32.80;;;18.30;95.60;;;;;;5076384;28;20055;-61
2022/03/24 10:27:25;;;;;;;51.95;32.13;;;18.60;95.10;;;;;;5075603;28;20025;-61
2022/03/24 10:29:55;;;;;;;51.35;31.38;;;18.60;94.40;;;;;;5075657;28;20077;-61
2022/03/24 10:32:26;;;;;;;46.47;31.40;;;18.50;92.40;;;;;;5075469;28;20034;-62
2022/03/24 10:34:57;;;;;;;50.65;30.38;;;18.80;93.50;;;;;;5075561;28;20064;-61
2022/03/24 10:37:26;;;;;;;47.05;30.23;;;19.20;92.50;;;;;;5079101;28;20434;-59
2022/03/24 10:40:07;;;;;;;40.60;27.45;;;19.60;91.10;;;;;;5079901;28;20047;-59
2022/03/24 10:42:36;;;;;;;39.20;27.13;;;20.10;88.10;;;;;;5080128;28;20036;-62
2022/03/24 10:45:20;;;;;;;38.35;27.20;;;21.10;85.10;;;;;;5080019;28;20036;-60
2022/03/24 10:48:00;;;;;;;43.97;29.10;;;21.90;82.80;;;;;;5079110;28;20040;-60
2022/03/24 10:50:42;;;;;;;43.13;28.98;;;22.90;76.20;;;;;;5063464;28;20028;-61
2022/03/24 10:53:16;;;;;;;45.60;31.40;;;22.80;74.50;;;;;;5079890;28;20117;-60
2022/03/24 10:55:46;;;;;;;47.22;29.95;;;22.70;72.40;;;;;;5079832;28;20053;-61
2022/03/24 10:58:39;;;;;;;37.80;27.92;;;22.60;73.50;;;;;;5079772;28;20028;-61
2022/03/24 11:01:15;;;;;;;39.42;27.70;;;23.60;68.50;;;;;;5080384;28;20037;-60
2022/03/24 11:03:41;;;;;;;34.45;25.77;;;24.60;66.60;;;;;;5079863;28;20032;-61
2022/03/24 11:06:17;;;;;;;33.70;24.45;;;25.30;61.40;;;;;;5079686;28;20043;-61
2022/03/24 11:08:54;;;;;;;26.98;20.85;;;26.20;58.90;;;;;;5078828;28;20028;-61
2022/03/24 11:11:21;;;;;;;23.60;16.20;;;25.70;56.60;;;;;;5079999;28;20047;-60
2022/03/24 11:13:58;;;;;;;25.27;18.65;;;25.40;54.80;;;;;;5078804;28;20052;-61
2022/03/24 11:16:26;;;;;;;27.02;17.83;;;25.20;56.30;;;;;;5078854;28;20025;-60
2022/03/24 11:18:54;;;;;;;33.45;21.77;;;25.60;54.20;;;;;;5078749;28;20044;-62
2022/03/24 11:21:34;;;;;;;31.85;23.05;;;25.80;53.60;;;;;;5079175;28;20395;-61
2022/03/24 11:24:01;;;;;;;30.42;22.48;;;26.20;52.00;;;;;;5079342;28;20111;-62
2022/03/24 11:26:28;;;;;;;33.53;23.83;;;26.20;51.30;;;;;;5079356;28;20044;-62
2022/03/24 11:28:55;;;;;;;29.20;23.42;;;27.00;50.60;;;;;;5078732;28;20041;-62
2022/03/24 11:31:23;;;;;;;33.97;20.85;;;27.00;48.70;;;;;;5078499;28;20036;-62
2022/03/24 11:33:52;;;;;;;28.42;18.92;;;27.70;48.20;;;;;;5079319;28;20094;-61
2022/03/24 11:36:21;;;;;;;26.13;20.73;;;28.30;48.00;;;;;;5079174;28;20036;-60
2022/03/24 11:38:51;;;;;;;28.98;20.48;;;28.80;46.80;;;;;;5078901;28;20104;-62
2022/03/24 11:41:21;;;;;;;30.20;20.05;;;28.60;46.50;;;;;;5079049;28;20024;-62
2022/03/24 11:43:55;;;;;;;26.73;19.35;;;29.40;44.70;;;;;;5079066;28;20036;-62
2022/03/24 11:46:31;;;;;;;27.33;17.88;;;29.80;42.10;;;;;;5078180;28;20277;-61
2022/03/24 11:49:15;;;;;;;20.60;15.88;;;29.80;42.60;;;;;;5060543;28;20281;-61
2022/03/24 11:51:41;;;;;;;21.88;15.85;;;30.40;42.00;;;;;;5077947;28;20039;-62
2022/03/24 11:54:08;;;;;;;27.83;14.52;;;30.40;40.20;;;;;;5078015;28;20036;-62
2022/03/24 11:56:35;;;;;;;23.92;14.18;;;29.90;39.60;;;;;;5078084;28;20039;-60
2022/03/24 11:59:01;;;;;;;20.85;13.48;;;30.20;39.40;;;;;;5078637;28;20024;-61
2022/03/24 12:01:31;;;;;;;17.40;12.48;;;30.60;39.80;;;;;;5078621;28;20111;-61
2022/03/24 12:04:12;;;;;;;17.98;11.88;;;31.10;37.80;;;;;;5078386;28;20032;-62
2022/03/24 12:06:41;;;;;;;19.10;12.65;;;30.50;38.20;;;;;;5078493;28;20063;-62
2022/03/24 12:09:15;;;;;;;21.75;11.93;;;31.20;37.40;;;;;;5077802;28;20037;-61
2022/03/24 12:11:47;;;;;;;19.25;11.48;;;31.00;36.40;;;;;;5078624;28;20396;-62
2022/03/24 12:14:20;;;;;;;20.83;12.15;;;31.60;36.90;;;;;;5077730;28;20092;-63
2022/03/24 12:16:48;;;;;;;20.17;12.07;;;32.20;36.80;;;;;;5077293;28;20016;-62
2022/03/24 12:19:32;;;;;;;19.52;11.48;;;31.60;35.80;;;;;;5078350;28;20047;-62
2022/03/24 12:21:59;;;;;;;19.05;11.32;;;32.10;36.30;;;;;;5078290;28;20123;-62
2022/03/24 12:24:35;;;;;;;17.23;11.63;;;32.40;36.10;;;;;;5078287;28;20140;-62
2022/03/24 12:27:04;;;;;;;19.00;10.05;;;32.10;34.10;;;;;;5078141;28;20044;-62
2022/03/24 12:29:31;;;;;;;23.10;10.95;;;30.50;36.40;;;;;;5078251;28;20036;-62
2022/03/24 12:32:05;;;;;;;17.92;9.82;;;30.70;37.50;;;;;;5078428;28;20037;-62
2022/03/24 12:34:44;;;;;;;16.42;10.13;;;30.50;36.40;;;;;;5078038;28;20404;-62
2022/03/24 12:37:25;;;;;;;17.58;9.90;;;30.50;37.30;;;;;;5078285;28;20319;-62